Main page
METAR-TAF:

METAR-TAF

Airports :

Santorini National Airport

Santorini, Greece

latitude: 36-24N, longitude: 025-29E, elevation: 38 m

Current weather observation

The report was made 30 minutes ago, at 13:20 UTC
Wind 4 kt from the East
Temperature 21°C
Humidity 69%
Pressure 1014 hPa
Visibility 10 km or more
Few clouds at a height of 2500 ft

METAR: LGSR 201320Z 09004KT 9999 FEW025 21/15 Q1014

Time: 16:50 (13:50 UTC)

Forecast

The report was made 2 hours and 50 minutes ago, at 11:00 UTC
Forecast valid from 20 at 12 UTC to 21 at 12 UTC
Wind 10 kt from the West
Visibility 10 km or more
Few clouds at a height of 2500 ft
Scattered clouds at a height of 3500 ft
Temporary
from 20 at 18 UTC to 21 at 12 UTC
Wind 15 kt from the South
Few clouds at a height of 1500 ft
Broken clouds at a height of 3000 ft

TAF: LGSR 201100Z 2012/2112 26010KT 9999 FEW025 SCT035 TEMPO 2018/2112 19015KT FEW015 BKN030

Weather observations and forecasts of more than 4000 airports (METAR and TAF reports).

The available stations are represented by yellow and red dots on the map.

Hover mouse over dot to see the name of the station.

Then click to see weather observations and forecasts.

To change the map : click on the green buttons with a black cross to zoom in, on the green button with a dash to zoom out, or on the green arrows for adjacent maps.


METAR-TAF: